sensor_id;sensor_type;location;lat;lon;timestamp;pressure;altitude;pressure_sealevel;temperature;humidity
7474;BME280;3778;42.572;23.426;2023-02-22T00:00:20;94984.94;;;-146.70;52.74
7474;BME280;3778;42.572;23.426;2023-02-22T00:02:54;94974.50;;;-146.70;52.82
7474;BME280;3778;42.572;23.426;2023-02-22T00:05:24;94974.50;;;-146.70;52.69
7474;BME280;3778;42.572;23.426;2023-02-22T00:07:52;95005.78;;;-146.70;52.63
7474;BME280;3778;42.572;23.426;2023-02-22T00:10:22;95032.88;;;-146.70;52.69
7474;BME280;3778;42.572;23.426;2023-02-22T00:12:50;94976.59;;;-146.70;52.74
7474;BME280;3778;42.572;23.426;2023-02-22T00:15:19;94964.09;;;-146.70;53.30
7474;BME280;3778;42.572;23.426;2023-02-22T00:17:46;95016.19;;;-146.70;53.47
7474;BME280;3778;42.572;23.426;2023-02-22T00:20:15;95024.53;;;-146.70;54.00
7474;BME280;3778;42.572;23.426;2023-02-22T00:22:44;95051.63;;;-146.70;54.39
7474;BME280;3778;42.572;23.426;2023-02-22T00:25:12;95032.88;;;-146.70;54.53
7474;BME280;3778;42.572;23.426;2023-02-22T00:27:39;95030.78;;;-146.70;54.32
7474;BME280;3778;42.572;23.426;2023-02-22T00:30:13;95032.88;;;-146.70;54.08
7474;BME280;3778;42.572;23.426;2023-02-22T00:32:43;94997.44;;;-146.70;53.56
7474;BME280;3778;42.572;23.426;2023-02-22T00:35:10;95014.13;;;-146.70;53.35
7474;BME280;3778;42.572;23.426;2023-02-22T00:37:37;94966.19;;;-146.70;53.28
7474;BME280;3778;42.572;23.426;2023-02-22T00:40:07;94993.28;;;-146.70;53.36
7474;BME280;3778;42.572;23.426;2023-02-22T00:42:34;95024.53;;;-146.70;53.71
7474;BME280;3778;42.572;23.426;2023-02-22T00:45:01;95007.84;;;-146.70;53.75
7474;BME280;3778;42.572;23.426;2023-02-22T00:47:29;95039.13;;;-146.70;54.10
7474;BME280;3778;42.572;23.426;2023-02-22T00:49:56;95018.28;;;-146.70;54.28
7474;BME280;3778;42.572;23.426;2023-02-22T00:52:25;95022.44;;;-146.70;54.52
7474;BME280;3778;42.572;23.426;2023-02-22T00:54:52;95026.63;;;-146.70;54.51
7474;BME280;3778;42.572;23.426;2023-02-22T00:57:19;95028.69;;;-146.70;54.10
7474;BME280;3778;42.572;23.426;2023-02-22T00:59:45;95012.03;;;-146.70;53.84
7474;BME280;3778;42.572;23.426;2023-02-22T01:02:12;95028.69;;;-146.70;54.27
7474;BME280;3778;42.572;23.426;2023-02-22T01:04:40;95057.88;;;-146.70;54.36
7474;BME280;3778;42.572;23.426;2023-02-22T01:07:07;95014.13;;;-146.70;54.23
7474;BME280;3778;42.572;23.426;2023-02-22T01:09:34;95012.03;;;-146.70;54.55
7474;BME280;3778;42.572;23.426;2023-02-22T01:12:04;95059.97;;;-146.70;54.75
7474;BME280;3778;42.572;23.426;2023-02-22T01:14:32;95091.22;;;-146.70;54.74
7474;BME280;3778;42.572;23.426;2023-02-22T01:16:59;95068.31;;;-146.70;54.92
7474;BME280;3778;42.572;23.426;2023-02-22T01:19:25;95095.41;;;-146.70;54.99
7474;BME280;3778;42.572;23.426;2023-02-22T01:21:53;95026.63;;;-146.70;54.95
7474;BME280;3778;42.572;23.426;2023-02-22T01:24:20;95034.97;;;-146.70;54.73
7474;BME280;3778;42.572;23.426;2023-02-22T01:26:49;95037.03;;;-146.70;54.15
7474;BME280;3778;42.572;23.426;2023-02-22T01:29:17;95037.03;;;-146.70;53.90
7474;BME280;3778;42.572;23.426;2023-02-22T01:31:50;95032.88;;;-146.70;53.86
7474;BME280;3778;42.572;23.426;2023-02-22T01:34:17;95053.72;;;-146.70;54.40
7474;BME280;3778;42.572;23.426;2023-02-22T01:36:44;95009.94;;;-146.70;54.60
7474;BME280;3778;42.572;23.426;2023-02-22T01:39:12;95078.72;;;-146.70;54.83
7474;BME280;3778;42.572;23.426;2023-02-22T01:41:39;95045.38;;;-146.70;55.22
7474;BME280;3778;42.572;23.426;2023-02-22T01:44:20;95049.53;;;-146.70;55.58
7474;BME280;3778;42.572;23.426;2023-02-22T01:46:47;95089.13;;;-146.70;55.83
7474;BME280;3778;42.572;23.426;2023-02-22T01:49:14;95074.56;;;-146.70;55.92
7474;BME280;3778;42.572;23.426;2023-02-22T01:51:43;95112.06;;;-146.70;56.06
7474;BME280;3778;42.572;23.426;2023-02-22T01:54:15;95122.50;;;-146.70;56.35
7474;BME280;3778;42.572;23.426;2023-02-22T01:56:46;95082.88;;;-146.70;56.32
7474;BME280;3778;42.572;23.426;2023-02-22T01:59:15;95103.72;;;-146.70;56.68
7474;BME280;3778;42.572;23.426;2023-02-22T02:01:43;95141.25;;;-146.70;56.89
7474;BME280;3778;42.572;23.426;2023-02-22T02:04:13;95116.25;;;-146.70;56.85
7474;BME280;3778;42.572;23.426;2023-02-22T02:06:41;95066.22;;;-146.70;56.99
7474;BME280;3778;42.572;23.426;2023-02-22T02:09:26;95080.81;;;-146.70;57.57
7474;BME280;3778;42.572;23.426;2023-02-22T02:11:57;95066.22;;;-146.70;57.80
7474;BME280;3778;42.572;23.426;2023-02-22T02:14:25;95114.16;;;-146.70;57.70
7474;BME280;3778;42.572;23.426;2023-02-22T02:16:52;95132.91;;;-146.70;57.87
7474;BME280;3778;42.572;23.426;2023-02-22T02:19:25;95034.97;;;-146.70;57.84
7474;BME280;3778;42.572;23.426;2023-02-22T02:22:17;95097.47;;;-146.70;57.17
7474;BME280;3778;42.572;23.426;2023-02-22T02:34:15;95041.22;;;-146.70;54.62
7474;BME280;3778;42.572;23.426;2023-02-22T02:36:54;95034.97;;;-146.70;54.77
7474;BME280;3778;42.572;23.426;2023-02-22T02:39:27;95072.47;;;-146.70;55.88
7474;BME280;3778;42.572;23.426;2023-02-22T02:41:55;95170.44;;;-146.70;57.36
7474;BME280;3778;42.572;23.426;2023-02-22T02:44:26;95130.81;;;-146.70;58.39
7474;BME280;3778;42.572;23.426;2023-02-22T02:46:57;95109.97;;;-146.70;58.96
7474;BME280;3778;42.572;23.426;2023-02-22T02:49:29;95122.50;;;-146.70;59.21
7474;BME280;3778;42.572;23.426;2023-02-22T02:51:59;95082.88;;;-146.70;58.67
7474;BME280;3778;42.572;23.426;2023-02-22T02:54:28;95091.22;;;-146.70;58.23
7474;BME280;3778;42.572;23.426;2023-02-22T02:56:56;95064.13;;;-146.70;57.67
7474;BME280;3778;42.572;23.426;2023-02-22T02:59:24;95080.81;;;-146.70;57.18
7474;BME280;3778;42.572;23.426;2023-02-22T03:02:00;95091.22;;;-146.70;56.29
7474;BME280;3778;42.572;23.426;2023-02-22T03:04:47;95028.69;;;-146.70;55.74
7474;BME280;3778;42.572;23.426;2023-02-22T03:07:28;95066.22;;;-146.70;56.11
7474;BME280;3778;42.572;23.426;2023-02-22T03:10:11;95122.50;;;-146.70;56.89
7474;BME280;3778;42.572;23.426;2023-02-22T03:12:47;95097.47;;;-146.70;57.82
7474;BME280;3778;42.572;23.426;2023-02-22T03:15:29;95099.56;;;-146.70;57.93
7474;BME280;3778;42.572;23.426;2023-02-22T03:18:03;95151.66;;;-146.70;58.14
7474;BME280;3778;42.572;23.426;2023-02-22T03:20:40;95128.75;;;-146.70;58.19
7474;BME280;3778;42.572;23.426;2023-02-22T03:23:13;95122.50;;;-146.70;58.12
7474;BME280;3778;42.572;23.426;2023-02-22T03:25:48;95124.56;;;-146.70;58.96
7474;BME280;3778;42.572;23.426;2023-02-22T03:28:18;95180.84;;;-146.70;59.24
7474;BME280;3778;42.572;23.426;2023-02-22T03:30:50;95120.41;;;-146.70;59.68
7474;BME280;3778;42.572;23.426;2023-02-22T03:33:23;95105.81;;;-146.70;60.08
7474;BME280;3778;42.572;23.426;2023-02-22T03:35:59;95145.41;;;-146.70;60.13
7474;BME280;3778;42.572;23.426;2023-02-22T03:38:31;95135.00;;;-146.70;60.16
7474;BME280;3778;42.572;23.426;2023-02-22T03:41:01;95170.44;;;-146.70;60.72
7474;BME280;3778;42.572;23.426;2023-02-22T03:43:30;95107.91;;;-146.70;60.93
7474;BME280;3778;42.572;23.426;2023-02-22T03:45:59;95216.28;;;-146.70;61.07
7474;BME280;3778;42.572;23.426;2023-02-22T03:48:36;95180.84;;;-146.70;61.22
7474;BME280;3778;42.572;23.426;2023-02-22T03:51:05;95199.59;;;-146.70;61.60
7474;BME280;3778;42.572;23.426;2023-02-22T03:53:33;95199.59;;;-146.70;61.58
7474;BME280;3778;42.572;23.426;2023-02-22T03:56:03;95141.25;;;-146.70;61.53
7474;BME280;3778;42.572;23.426;2023-02-22T03:58:33;95135.00;;;-146.70;61.17
7474;BME280;3778;42.572;23.426;2023-02-22T04:01:02;95141.25;;;-146.70;61.13
7474;BME280;3778;42.572;23.426;2023-02-22T04:03:29;95116.25;;;-146.70;60.94
7474;BME280;3778;42.572;23.426;2023-02-22T04:05:55;95162.09;;;-146.70;61.15
7474;BME280;3778;42.572;23.426;2023-02-22T04:08:23;95141.25;;;-146.70;61.00
7474;BME280;3778;42.572;23.426;2023-02-22T04:10:50;95207.94;;;-146.70;60.73
7474;BME280;3778;42.572;23.426;2023-02-22T04:13:17;95170.44;;;-146.70;61.15
7474;BME280;3778;42.572;23.426;2023-02-22T04:15:43;95149.59;;;-146.70;61.60
7474;BME280;3778;42.572;23.426;2023-02-22T04:18:10;95195.44;;;-146.70;61.79
7474;BME280;3778;42.572;23.426;2023-02-22T04:20:38;95178.75;;;-146.70;61.29
7474;BME280;3778;42.572;23.426;2023-02-22T04:23:05;95174.59;;;-146.70;60.67
7474;BME280;3778;42.572;23.426;2023-02-22T04:25:33;95101.66;;;-146.70;60.17
7474;BME280;3778;42.572;23.426;2023-02-22T04:27:59;95116.25;;;-146.70;59.74
7474;BME280;3778;42.572;23.426;2023-02-22T04:30:26;95126.66;;;-146.70;59.79
7474;BME280;3778;42.572;23.426;2023-02-22T04:32:54;95118.31;;;-146.70;59.83
7474;BME280;3778;42.572;23.426;2023-02-22T04:35:21;95128.75;;;-146.70;60.25
7474;BME280;3778;42.572;23.426;2023-02-22T04:37:48;95128.75;;;-146.70;60.72
7474;BME280;3778;42.572;23.426;2023-02-22T04:40:15;95101.66;;;-146.70;61.40
7474;BME280;3778;42.572;23.426;2023-02-22T04:42:44;95203.78;;;-146.70;61.76
7474;BME280;3778;42.572;23.426;2023-02-22T04:45:10;95137.06;;;-146.70;62.18
7474;BME280;3778;42.572;23.426;2023-02-22T04:47:37;95141.25;;;-146.70;61.83
7474;BME280;3778;42.572;23.426;2023-02-22T04:50:05;95157.91;;;-146.70;61.17
7474;BME280;3778;42.572;23.426;2023-02-22T04:52:32;95182.94;;;-146.70;60.89
7474;BME280;3778;42.572;23.426;2023-02-22T04:54:59;95132.91;;;-146.70;61.04
7474;BME280;3778;42.572;23.426;2023-02-22T04:57:26;95166.25;;;-146.70;61.45
7474;BME280;3778;42.572;23.426;2023-02-22T04:59:54;95220.44;;;-146.70;61.58
7474;BME280;3778;42.572;23.426;2023-02-22T05:02:20;95149.59;;;-146.70;62.05
7474;BME280;3778;42.572;23.426;2023-02-22T05:04:47;95176.69;;;-146.70;62.79
7474;BME280;3778;42.572;23.426;2023-02-22T05:07:14;95174.59;;;-146.70;63.39
7474;BME280;3778;42.572;23.426;2023-02-22T05:09:42;95189.19;;;-146.70;63.54
7474;BME280;3778;42.572;23.426;2023-02-22T05:12:09;95182.94;;;-146.70;63.83
7474;BME280;3778;42.572;23.426;2023-02-22T05:14:35;95187.09;;;-146.70;63.95
7474;BME280;3778;42.572;23.426;2023-02-22T05:17:07;95253.78;;;-146.70;63.63
7474;BME280;3778;42.572;23.426;2023-02-22T05:19:33;95187.09;;;-146.70;63.41
7474;BME280;3778;42.572;23.426;2023-02-22T05:22:25;95180.84;;;-146.70;62.55
7474;BME280;3778;42.572;23.426;2023-02-22T05:24:51;95199.59;;;-146.70;62.05
7474;BME280;3778;42.572;23.426;2023-02-22T05:27:18;95178.75;;;-146.70;62.18
7474;BME280;3778;42.572;23.426;2023-02-22T05:29:45;95182.94;;;-146.70;62.55
7474;BME280;3778;42.572;23.426;2023-02-22T05:32:13;95207.94;;;-146.70;62.87
7474;BME280;3778;42.572;23.426;2023-02-22T05:34:40;95141.25;;;-146.70;63.12
7474;BME280;3778;42.572;23.426;2023-02-22T05:37:06;95141.25;;;-146.70;63.55
7474;BME280;3778;42.572;23.426;2023-02-22T05:39:33;95189.19;;;-146.70;63.98
7474;BME280;3778;42.572;23.426;2023-02-22T05:42:00;95143.34;;;-146.70;64.63
7474;BME280;3778;42.572;23.426;2023-02-22T05:44:27;95176.69;;;-146.70;64.95
7474;BME280;3778;42.572;23.426;2023-02-22T05:46:53;95178.75;;;-146.70;64.99
7474;BME280;3778;42.572;23.426;2023-02-22T05:49:21;95130.81;;;-146.70;nan
7474;BME280;3778;42.572;23.426;2023-02-22T05:51:48;95189.19;;;-146.70;64.27
7474;BME280;3778;42.572;23.426;2023-02-22T05:54:15;95160.00;;;-146.70;64.22
7474;BME280;3778;42.572;23.426;2023-02-22T05:56:41;95120.41;;;-146.70;64.06
7474;BME280;3778;42.572;23.426;2023-02-22T05:59:08;95222.53;;;-146.70;64.11
7474;BME280;3778;42.572;23.426;2023-02-22T06:01:35;95187.09;;;-146.70;63.86
7474;BME280;3778;42.572;23.426;2023-02-22T06:04:01;95130.81;;;-146.70;63.65
7474;BME280;3778;42.572;23.426;2023-02-22T06:06:29;95128.75;;;-146.70;63.42
7474;BME280;3778;42.572;23.426;2023-02-22T06:08:56;95172.50;;;-146.70;63.69
7474;BME280;3778;42.572;23.426;2023-02-22T06:11:23;95366.34;;;-146.70;64.02
7474;BME280;3778;42.572;23.426;2023-02-22T06:13:50;95143.34;;;-146.70;64.04
7474;BME280;3778;42.572;23.426;2023-02-22T06:16:19;95193.34;;;-146.70;64.04
7474;BME280;3778;42.572;23.426;2023-02-22T06:18:46;95166.25;;;-146.70;63.85
7474;BME280;3778;42.572;23.426;2023-02-22T06:21:13;95155.84;;;-146.70;63.80
7474;BME280;3778;42.572;23.426;2023-02-22T06:23:41;95162.09;;;-146.70;63.50
7474;BME280;3778;42.572;23.426;2023-02-22T06:26:07;95185.03;;;-146.70;63.16
7474;BME280;3778;42.572;23.426;2023-02-22T06:28:34;95135.00;;;-146.70;63.06
7474;BME280;3778;42.572;23.426;2023-02-22T06:31:01;95178.75;;;-146.70;62.85
7474;BME280;3778;42.572;23.426;2023-02-22T06:33:28;95141.25;;;-146.70;62.58
7474;BME280;3778;42.572;23.426;2023-02-22T06:35:54;95105.81;;;-146.70;62.49
7474;BME280;3778;42.572;23.426;2023-02-22T06:38:22;95182.94;;;-146.70;62.21
7474;BME280;3778;42.572;23.426;2023-02-22T06:40:50;95135.00;;;-146.70;62.31
7474;BME280;3778;42.572;23.426;2023-02-22T06:43:17;95137.06;;;-146.70;62.08
7474;BME280;3778;42.572;23.426;2023-02-22T06:45:43;95155.84;;;-146.70;61.85
7474;BME280;3778;42.572;23.426;2023-02-22T06:48:10;95135.00;;;-146.70;61.19
7474;BME280;3778;42.572;23.426;2023-02-22T06:50:37;95107.91;;;-146.70;60.81
7474;BME280;3778;42.572;23.426;2023-02-22T06:53:04;95101.66;;;-146.70;60.17
7474;BME280;3778;42.572;23.426;2023-02-22T06:55:32;95028.69;;;-146.70;59.33
7474;BME280;3778;42.572;23.426;2023-02-22T06:58:02;95057.88;;;-146.70;58.50
7474;BME280;3778;42.572;23.426;2023-02-22T07:00:30;95014.13;;;-146.70;57.82
7474;BME280;3778;42.572;23.426;2023-02-22T07:02:57;95093.31;;;-146.70;57.72
7474;BME280;3778;42.572;23.426;2023-02-22T07:05:25;95072.47;;;-146.70;57.59
7474;BME280;3778;42.572;23.426;2023-02-22T07:08:02;95016.19;;;-146.70;57.75
7474;BME280;3778;42.572;23.426;2023-02-22T07:10:30;95026.63;;;-146.70;57.43
7474;BME280;3778;42.572;23.426;2023-02-22T07:12:58;94999.53;;;-146.70;57.14
7474;BME280;3778;42.572;23.426;2023-02-22T07:15:28;95009.94;;;-146.70;56.89
7474;BME280;3778;42.572;23.426;2023-02-22T07:17:55;94991.19;;;-146.70;56.79
7474;BME280;3778;42.572;23.426;2023-02-22T07:20:23;95032.88;;;-146.70;56.32
7474;BME280;3778;42.572;23.426;2023-02-22T07:22:50;94982.84;;;-146.70;55.69
7474;BME280;3778;42.572;23.426;2023-02-22T07:25:17;95007.84;;;-146.70;55.11
7474;BME280;3778;42.572;23.426;2023-02-22T07:27:45;94972.44;;;-146.70;54.87
7474;BME280;3778;42.572;23.426;2023-02-22T07:30:16;94928.66;;;-146.70;54.36
7474;BME280;3778;42.572;23.426;2023-02-22T07:32:44;94980.75;;;-146.70;54.20
7474;BME280;3778;42.572;23.426;2023-02-22T07:35:15;94964.09;;;-146.70;53.71
7474;BME280;3778;42.572;23.426;2023-02-22T07:37:42;94849.47;;;-146.70;53.39
7474;BME280;3778;42.572;23.426;2023-02-22T07:40:10;94878.66;;;-146.70;52.58
7474;BME280;3778;42.572;23.426;2023-02-22T07:42:50;94889.06;;;-146.70;51.99
7474;BME280;3778;42.572;23.426;2023-02-22T07:45:17;94876.56;;;-146.70;51.46
7474;BME280;3778;42.572;23.426;2023-02-22T07:47:46;94855.72;;;-146.70;50.95
7474;BME280;3778;42.572;23.426;2023-02-22T07:50:13;94816.13;;;-146.70;50.59
7474;BME280;3778;42.572;23.426;2023-02-22T07:52:39;94803.63;;;-146.70;50.36
7474;BME280;3778;42.572;23.426;2023-02-22T07:55:06;94799.44;;;-146.70;50.60
7474;BME280;3778;42.572;23.426;2023-02-22T07:57:33;94749.44;;;-146.70;49.13
7474;BME280;3778;42.572;23.426;2023-02-22T08:00:00;94751.53;;;-146.70;49.08
7474;BME280;3778;42.572;23.426;2023-02-22T08:02:27;94718.16;;;-146.70;49.00
7474;BME280;3778;42.572;23.426;2023-02-22T08:04:55;94699.41;;;-146.70;48.98
7474;BME280;3778;42.572;23.426;2023-02-22T08:07:21;94701.50;;;-146.70;48.56
7474;BME280;3778;42.572;23.426;2023-02-22T08:09:48;94703.59;;;-146.70;48.36
7474;BME280;3778;42.572;23.426;2023-02-22T08:12:15;94668.16;;;-146.70;47.55
7474;BME280;3778;42.572;23.426;2023-02-22T08:14:41;94664.00;;;-146.70;46.95
7474;BME280;3778;42.572;23.426;2023-02-22T08:17:08;94632.72;;;-146.70;48.00
7474;BME280;3778;42.572;23.426;2023-02-22T08:19:35;94626.47;;;-146.70;47.70
7474;BME280;3778;42.572;23.426;2023-02-22T08:22:04;94582.72;;;-146.70;47.56
7474;BME280;3778;42.572;23.426;2023-02-22T08:24:31;94545.19;;;-146.70;46.19
7474;BME280;3778;42.572;23.426;2023-02-22T08:26:58;94576.47;;;-146.70;46.17
7474;BME280;3778;42.572;23.426;2023-02-22T08:29:25;94501.44;;;-146.70;45.88
7474;BME280;3778;42.572;23.426;2023-02-22T08:31:57;94501.44;;;-146.70;45.08
7474;BME280;3778;42.572;23.426;2023-02-22T08:34:24;94499.34;;;-146.70;46.15
7474;BME280;3778;42.572;23.426;2023-02-22T08:36:51;94445.19;;;-146.70;42.92
7474;BME280;3778;42.572;23.426;2023-02-22T08:39:19;94395.16;;;-146.70;42.37
7474;BME280;3778;42.572;23.426;2023-02-22T08:41:46;94441.00;;;-146.70;43.23
7474;BME280;3778;42.572;23.426;2023-02-22T08:44:13;94380.56;;;-146.70;41.88
7474;BME280;3778;42.572;23.426;2023-02-22T08:46:39;94349.31;;;-146.70;41.56
7474;BME280;3778;42.572;23.426;2023-02-22T08:49:06;94368.06;;;-146.70;41.33
7474;BME280;3778;42.572;23.426;2023-02-22T08:51:34;94355.56;;;-146.70;41.25
7474;BME280;3778;42.572;23.426;2023-02-22T08:54:01;94374.31;;;-146.70;41.04
7474;BME280;3778;42.572;23.426;2023-02-22T08:56:32;94347.25;;;-146.70;41.26
7474;BME280;3778;42.572;23.426;2023-02-22T08:58:59;94290.97;;;-146.70;41.11
7474;BME280;3778;42.572;23.426;2023-02-22T09:01:25;94297.22;;;-146.70;40.99
7474;BME280;3778;42.572;23.426;2023-02-22T09:03:53;94322.22;;;-146.70;40.65
7474;BME280;3778;42.572;23.426;2023-02-22T09:06:20;94284.72;;;-146.70;40.81
7474;BME280;3778;42.572;23.426;2023-02-22T09:08:47;94278.47;;;-146.70;40.38
7474;BME280;3778;42.572;23.426;2023-02-22T09:11:13;94328.47;;;-146.70;40.22
7474;BME280;3778;42.572;23.426;2023-02-22T09:13:43;94274.31;;;-146.70;40.96
7474;BME280;3778;42.572;23.426;2023-02-22T09:16:10;94274.31;;;-146.70;40.81
7474;BME280;3778;42.572;23.426;2023-02-22T09:18:37;94268.06;;;-146.70;39.63
7474;BME280;3778;42.572;23.426;2023-02-22T09:21:04;94286.81;;;-146.70;40.21
7474;BME280;3778;42.572;23.426;2023-02-22T09:23:31;94251.38;;;-146.70;39.94
7474;BME280;3778;42.572;23.426;2023-02-22T09:25:59;94272.22;;;-146.70;39.68
7474;BME280;3778;42.572;23.426;2023-02-22T09:28:26;94268.06;;;-146.70;39.99
7474;BME280;3778;42.572;23.426;2023-02-22T09:30:54;94234.72;;;-146.70;39.52
7474;BME280;3778;42.572;23.426;2023-02-22T09:33:21;94247.22;;;-146.70;39.66
7474;BME280;3778;42.572;23.426;2023-02-22T09:35:48;94228.47;;;-146.70;38.93
7474;BME280;3778;42.572;23.426;2023-02-22T09:38:17;94220.13;;;-146.70;38.64
7474;BME280;3778;42.572;23.426;2023-02-22T09:40:45;94145.09;;;-146.70;38.27
7474;BME280;3778;42.572;23.426;2023-02-22T09:43:28;94170.13;;;-146.70;38.61
7474;BME280;3778;42.572;23.426;2023-02-22T09:46:14;94132.59;;;-146.70;37.67
7474;BME280;3778;42.572;23.426;2023-02-22T09:48:53;94111.78;;;-146.70;37.84
7474;BME280;3778;42.572;23.426;2023-02-22T09:51:26;94090.94;;;-146.70;37.78
7474;BME280;3778;42.572;23.426;2023-02-22T09:53:58;94053.44;;;-146.70;36.05
7474;BME280;3778;42.572;23.426;2023-02-22T09:56:26;94065.94;;;-146.70;36.59
7474;BME280;3778;42.572;23.426;2023-02-22T09:58:58;94074.25;;;-146.70;35.58
7474;BME280;3778;42.572;23.426;2023-02-22T10:01:29;94057.59;;;-146.70;36.25
7474;BME280;3778;42.572;23.426;2023-02-22T10:04:03;94024.25;;;-146.70;36.68
7474;BME280;3778;42.572;23.426;2023-02-22T10:06:31;94047.19;;;-146.70;36.09
7474;BME280;3778;42.572;23.426;2023-02-22T10:09:00;94076.34;;;-146.70;36.28
7474;BME280;3778;42.572;23.426;2023-02-22T10:11:48;94047.19;;;-146.70;36.70
7474;BME280;3778;42.572;23.426;2023-02-22T10:14:37;94011.75;;;-146.70;35.98
7474;BME280;3778;42.572;23.426;2023-02-22T10:17:15;93968.00;;;-146.70;35.23
7474;BME280;3778;42.572;23.426;2023-02-22T10:19:55;94011.75;;;-146.70;34.71
7474;BME280;3778;42.572;23.426;2023-02-22T10:22:38;93972.16;;;-146.70;35.05
7474;BME280;3778;42.572;23.426;2023-02-22T10:25:10;94047.19;;;-146.70;34.71
7474;BME280;3778;42.572;23.426;2023-02-22T10:27:41;93972.16;;;-146.70;34.96
7474;BME280;3778;42.572;23.426;2023-02-22T10:30:17;93982.59;;;-146.70;35.36
7474;BME280;3778;42.572;23.426;2023-02-22T10:32:51;93911.75;;;-146.70;34.57
7474;BME280;3778;42.572;23.426;2023-02-22T10:35:22;93920.06;;;-146.70;34.36
7474;BME280;3778;42.572;23.426;2023-02-22T10:37:51;93901.31;;;-146.70;34.08
7474;BME280;3778;42.572;23.426;2023-02-22T10:40:22;93890.91;;;-146.70;33.67
7474;BME280;3778;42.572;23.426;2023-02-22T10:42:57;93863.81;;;-146.70;33.77
7474;BME280;3778;42.572;23.426;2023-02-22T10:45:27;93920.06;;;-146.70;33.91
7474;BME280;3778;42.572;23.426;2023-02-22T10:47:59;93855.47;;;-146.70;33.45
7474;BME280;3778;42.572;23.426;2023-02-22T10:50:28;93820.06;;;-146.70;33.24
7474;BME280;3778;42.572;23.426;2023-02-22T10:52:56;93878.41;;;-146.70;33.37
7474;BME280;3778;42.572;23.426;2023-02-22T10:55:23;93799.22;;;-146.70;33.48
7474;BME280;3778;42.572;23.426;2023-02-22T10:57:58;93840.91;;;-146.70;33.21
7474;BME280;3778;42.572;23.426;2023-02-22T11:00:28;93863.81;;;-146.70;32.99
7474;BME280;3778;42.572;23.426;2023-02-22T11:02:59;93820.06;;;-146.70;32.92
7474;BME280;3778;42.572;23.426;2023-02-22T11:05:33;93953.41;;;-146.70;34.08
7474;BME280;3778;42.572;23.426;2023-02-22T11:08:25;93757.56;;;-146.70;33.37
7474;BME280;3778;42.572;23.426;2023-02-22T11:10:54;93832.56;;;-146.70;33.24
7474;BME280;3778;42.572;23.426;2023-02-22T11:13:26;93801.31;;;-146.70;33.09
7474;BME280;3778;42.572;23.426;2023-02-22T11:15:54;93761.72;;;-146.70;33.24
7474;BME280;3778;42.572;23.426;2023-02-22T11:18:24;93770.06;;;-146.70;32.81
7474;BME280;3778;42.572;23.426;2023-02-22T11:21:03;93703.38;;;-146.70;33.02
7474;BME280;3778;42.572;23.426;2023-02-22T11:23:31;93730.47;;;-146.70;33.19
7474;BME280;3778;42.572;23.426;2023-02-22T11:26:06;93774.22;;;-146.70;32.68
7474;BME280;3778;42.572;23.426;2023-02-22T11:28:33;93709.63;;;-146.70;32.20
7474;BME280;3778;42.572;23.426;2023-02-22T11:31:13;93626.31;;;-146.70;32.34
7474;BME280;3778;42.572;23.426;2023-02-22T11:33:49;93680.47;;;-146.70;32.24
7474;BME280;3778;42.572;23.426;2023-02-22T11:36:30;93674.22;;;-146.70;32.37
7474;BME280;3778;42.572;23.426;2023-02-22T11:38:58;93617.97;;;-146.70;31.82
7474;BME280;3778;42.572;23.426;2023-02-22T11:41:26;93661.72;;;-146.70;31.48
7474;BME280;3778;42.572;23.426;2023-02-22T11:44:11;93680.47;;;-146.70;31.75
7474;BME280;3778;42.572;23.426;2023-02-22T11:46:39;93588.78;;;-146.70;31.23
7474;BME280;3778;42.572;23.426;2023-02-22T11:49:10;93636.72;;;-146.70;31.18
7474;BME280;3778;42.572;23.426;2023-02-22T11:51:45;93688.81;;;-146.70;30.93
7474;BME280;3778;42.572;23.426;2023-02-22T11:54:26;93609.63;;;-146.70;31.09
7474;BME280;3778;42.572;23.426;2023-02-22T11:57:07;93551.28;;;-146.70;30.83
7474;BME280;3778;42.572;23.426;2023-02-22T11:59:51;93590.88;;;-146.70;30.65
7474;BME280;3778;42.572;23.426;2023-02-22T12:02:34;93638.78;;;-146.70;30.43
7474;BME280;3778;42.572;23.426;2023-02-22T12:05:27;93557.53;;;-146.70;29.97
7474;BME280;3778;42.572;23.426;2023-02-22T12:08:11;93520.03;;;-146.70;30.26
7474;BME280;3778;42.572;23.426;2023-02-22T12:10:51;93580.47;;;-146.70;30.35
7474;BME280;3778;42.572;23.426;2023-02-22T12:13:30;93486.72;;;-146.70;30.56
7474;BME280;3778;42.572;23.426;2023-02-22T12:16:11;93545.03;;;-146.70;31.43
7474;BME280;3778;42.572;23.426;2023-02-22T12:18:51;93499.22;;;-146.70;30.95
7474;BME280;3778;42.572;23.426;2023-02-22T12:21:26;93513.78;;;-146.70;30.83
7474;BME280;3778;42.572;23.426;2023-02-22T12:23:59;93482.53;;;-146.70;31.08
7474;BME280;3778;42.572;23.426;2023-02-22T12:26:32;93395.03;;;-146.70;30.89
7474;BME280;3778;42.572;23.426;2023-02-22T12:29:05;93442.97;;;-146.70;31.21
7474;BME280;3778;42.572;23.426;2023-02-22T12:31:38;93453.38;;;-146.70;30.71
7474;BME280;3778;42.572;23.426;2023-02-22T12:34:15;93415.88;;;-146.70;30.75
7474;BME280;3778;42.572;23.426;2023-02-22T12:36:51;93472.13;;;-146.70;30.94
7474;BME280;3778;42.572;23.426;2023-02-22T12:39:31;93451.28;;;-146.70;30.79
7474;BME280;3778;42.572;23.426;2023-02-22T12:42:04;93467.97;;;-146.70;30.96
7474;BME280;3778;42.572;23.426;2023-02-22T12:44:34;93378.38;;;-146.70;30.51
7474;BME280;3778;42.572;23.426;2023-02-22T12:47:05;93434.63;;;-146.70;30.54
7474;BME280;3778;42.572;23.426;2023-02-22T12:49:38;93382.53;;;-146.70;30.48
7474;BME280;3778;42.572;23.426;2023-02-22T12:52:12;93384.63;;;-146.70;30.22
7474;BME280;3778;42.572;23.426;2023-02-22T12:54:46;93459.63;;;-146.70;30.45
7474;BME280;3778;42.572;23.426;2023-02-22T12:57:21;93270.03;;;-146.70;29.93
7474;BME280;3778;42.572;23.426;2023-02-22T12:59:56;93170.06;;;-146.70;29.43
7474;BME280;3778;42.572;23.426;2023-02-22T13:02:27;93105.47;;;-146.70;28.82
7474;BME280;3778;42.572;23.426;2023-02-22T13:04:56;93163.81;;;-146.70;28.82
7474;BME280;3778;42.572;23.426;2023-02-22T13:07:33;92990.91;;;-146.70;28.15
7474;BME280;3778;42.572;23.426;2023-02-22T13:10:22;93115.88;;;-146.70;28.52
7474;BME280;3778;42.572;23.426;2023-02-22T13:12:59;93072.13;;;-146.70;28.67
7474;BME280;3778;42.572;23.426;2023-02-22T13:15:36;92995.06;;;-146.70;27.82